createdAt,value
2019-05-11T00:00:54.714Z,11.03
2019-05-11T00:03:23.928Z,13.53
2019-05-11T00:05:53.122Z,12.73
2019-05-11T00:08:24.645Z,13.00
2019-05-11T00:10:53.917Z,14.33
2019-05-11T00:13:23.113Z,13.53
2019-05-11T00:15:52.357Z,12.03
2019-05-11T00:18:21.629Z,12.27
2019-05-11T00:20:50.845Z,10.03
2019-05-11T00:23:20.056Z,9.13
2019-05-11T00:25:49.838Z,10.27
2019-05-11T00:28:19.048Z,11.03
2019-05-11T00:30:48.342Z,11.60
2019-05-11T00:33:17.645Z,13.17
2019-05-11T00:35:46.895Z,10.27
2019-05-11T00:38:16.123Z,10.20
2019-05-11T00:40:45.353Z,12.37
2019-05-11T00:43:14.561Z,9.53
2019-05-11T00:45:43.764Z,13.07
2019-05-11T00:48:12.973Z,16.50
2019-05-11T00:50:42.170Z,11.43
2019-05-11T00:53:11.533Z,14.70
2019-05-11T00:55:40.757Z,15.00
2019-05-11T00:58:09.949Z,13.40
2019-05-11T01:00:39.165Z,13.97
2019-05-11T01:03:08.365Z,18.63
2019-05-11T01:05:37.552Z,17.23
2019-05-11T01:08:06.771Z,21.73
2019-05-11T01:10:42.124Z,12.90
2019-05-11T01:13:06.975Z,16.70
2019-05-11T01:15:42.228Z,15.40
2019-05-11T01:18:11.515Z,14.10
2019-05-11T01:20:40.725Z,16.43
2019-05-11T01:23:09.968Z,16.03
2019-05-11T01:25:40.233Z,15.87
2019-05-11T01:28:09.452Z,16.20
2019-05-11T01:30:38.936Z,16.30
2019-05-11T01:33:08.404Z,16.40
2019-05-11T01:35:38.033Z,17.00
2019-05-11T01:38:07.238Z,17.63
2019-05-11T01:40:36.456Z,14.33
2019-05-11T01:43:05.670Z,12.63
2019-05-11T01:45:35.224Z,16.93
2019-05-11T01:48:04.467Z,18.83
2019-05-11T01:50:33.765Z,18.70
2019-05-11T01:53:02.958Z,17.03
2019-05-11T01:55:32.209Z,15.23
2019-05-11T01:58:01.473Z,15.60
2019-05-11T02:00:30.684Z,18.37
2019-05-11T02:03:00.676Z,14.50
2019-05-11T02:05:30.710Z,17.37
2019-05-11T02:08:00.406Z,15.30
2019-05-11T02:10:29.836Z,14.87
2019-05-11T02:12:59.100Z,17.67
2019-05-11T02:15:28.427Z,17.57
2019-05-11T02:17:57.664Z,14.20
2019-05-11T02:20:26.920Z,16.03
2019-05-11T02:22:56.115Z,18.47
2019-05-11T02:25:25.315Z,16.27
2019-05-11T02:27:54.541Z,15.10
2019-05-11T02:30:23.778Z,17.77
2019-05-11T02:32:52.988Z,18.13
2019-05-11T02:35:22.194Z,16.67
2019-05-11T02:37:51.403Z,19.10
2019-05-11T02:40:20.669Z,22.67
2019-05-11T02:42:49.873Z,18.57
2019-05-11T02:45:33.408Z,15.93
2019-05-11T02:48:02.609Z,20.50
2019-05-11T02:50:32.084Z,25.03
2019-05-11T02:53:01.310Z,20.67
2019-05-11T02:55:30.513Z,15.73
2019-05-11T02:57:59.722Z,16.40
2019-05-11T03:00:36.691Z,21.13
2019-05-11T03:03:05.895Z,18.33
2019-05-11T03:05:35.093Z,16.97
2019-05-11T03:08:04.413Z,15.10
2019-05-11T03:10:33.629Z,22.47
2019-05-11T03:13:02.823Z,17.53
2019-05-11T03:15:32.053Z,15.10
2019-05-11T03:18:01.301Z,16.00
2019-05-11T03:20:30.505Z,16.67
2019-05-11T03:22:59.708Z,16.87
2019-05-11T03:25:28.939Z,18.00
2019-05-11T03:27:58.304Z,22.33
2019-05-11T03:30:27.505Z,16.90
2019-05-11T03:32:56.733Z,15.97
2019-05-11T03:35:26.129Z,17.80
2019-05-11T03:37:55.483Z,20.63
2019-05-11T03:40:24.669Z,17.87
2019-05-11T03:42:53.933Z,25.27
2019-05-11T03:45:23.178Z,19.93
2019-05-11T03:47:52.448Z,21.27
2019-05-11T03:50:21.666Z,21.87
2019-05-11T03:52:50.933Z,16.17
2019-05-11T03:55:22.452Z,18.60
2019-05-11T03:57:51.659Z,19.13
2019-05-11T04:00:21.529Z,17.90
2019-05-11T04:02:50.753Z,22.03
2019-05-11T04:05:19.963Z,16.53
2019-05-11T04:07:49.173Z,16.60
2019-05-11T04:10:18.373Z,19.73
2019-05-11T04:12:47.593Z,18.00
2019-05-11T04:15:20.196Z,16.33
2019-05-11T04:17:49.427Z,16.00
2019-05-11T04:20:18.637Z,14.43
2019-05-11T04:22:51.561Z,16.23
2019-05-11T04:25:20.785Z,15.57
2019-05-11T04:27:50.002Z,16.17
2019-05-11T04:30:19.212Z,13.53
2019-05-11T04:32:50.836Z,14.83
2019-05-11T04:35:19.342Z,16.37
2019-05-11T04:37:50.200Z,17.60
2019-05-11T04:40:19.407Z,13.37
2019-05-11T04:42:55.223Z,12.37
2019-05-11T04:45:19.505Z,14.70
2019-05-11T04:47:48.838Z,14.07
2019-05-11T04:50:18.060Z,10.83
2019-05-11T04:52:47.372Z,14.50
2019-05-11T04:55:16.609Z,17.90
2019-05-11T04:57:46.960Z,10.17
2019-05-11T05:00:16.285Z,15.27
2019-05-11T05:02:46.140Z,13.70
2019-05-11T05:05:15.443Z,14.43
2019-05-11T05:07:49.376Z,15.17
2019-05-11T05:10:20.071Z,14.10
2019-05-11T05:12:51.652Z,13.40
2019-05-11T05:15:22.556Z,14.57
2019-05-11T05:17:52.898Z,14.27
2019-05-11T05:20:22.179Z,14.73
2019-05-11T05:22:51.409Z,14.47
2019-05-11T05:25:20.659Z,14.53
2019-05-11T05:27:49.932Z,16.93
2019-05-11T05:30:19.185Z,16.23
2019-05-11T05:32:49.748Z,16.50
2019-05-11T05:35:20.874Z,11.90
2019-05-11T05:37:51.388Z,13.43
2019-05-11T05:40:20.610Z,16.30
2019-05-11T05:42:49.899Z,16.00
2019-05-11T05:45:19.131Z,16.87
2019-05-11T05:47:48.450Z,16.30
2019-05-11T05:50:19.151Z,16.73
2019-05-11T05:52:49.727Z,14.17
2019-05-11T05:55:18.940Z,15.93
2019-05-11T05:57:48.280Z,13.23
2019-05-11T06:00:17.505Z,17.93
2019-05-11T06:02:46.830Z,18.63
2019-05-11T06:05:16.054Z,14.07
2019-05-11T06:07:45.278Z,15.87
2019-05-11T06:10:16.879Z,12.27
2019-05-11T06:12:46.093Z,17.10
2019-05-11T06:15:16.327Z,16.13
2019-05-11T06:17:45.589Z,14.90
2019-05-11T06:20:14.796Z,14.63
2019-05-11T06:22:43.994Z,14.13
2019-05-11T06:25:13.354Z,18.73
2019-05-11T06:27:42.573Z,18.27
2019-05-11T06:30:11.858Z,17.77
2019-05-11T06:32:44.405Z,12.10
2019-05-11T06:35:13.636Z,13.73
2019-05-11T06:37:42.840Z,14.67
2019-05-11T06:40:12.073Z,16.47
2019-05-11T06:42:41.313Z,16.10
2019-05-11T06:45:11.324Z,15.27
2019-05-11T06:47:40.650Z,12.33
2019-05-11T06:50:09.859Z,11.30
2019-05-11T06:52:39.075Z,13.30
2019-05-11T06:55:08.308Z,17.57
2019-05-11T06:57:37.880Z,14.23
2019-05-11T07:00:07.235Z,13.73
2019-05-11T07:02:36.527Z,11.03
2019-05-11T07:05:06.067Z,12.83
2019-05-11T07:07:47.153Z,20.40
2019-05-11T07:10:06.340Z,14.40
2019-05-11T07:12:35.629Z,14.60
2019-05-11T07:15:05.068Z,13.60
2019-05-11T07:17:34.280Z,14.63
2019-05-11T07:20:03.766Z,17.13
2019-05-11T07:22:32.969Z,13.67
2019-05-11T07:25:02.146Z,13.07
2019-05-11T07:27:31.353Z,14.80
2019-05-11T07:30:00.668Z,9.80
2019-05-11T07:32:29.872Z,13.73
2019-05-11T07:34:59.155Z,12.57
2019-05-11T07:37:28.360Z,11.97
2019-05-11T07:39:58.154Z,15.67
2019-05-11T07:42:28.572Z,19.30
2019-05-11T07:44:58.380Z,18.50
2019-05-11T07:47:27.945Z,16.10
2019-05-11T07:49:57.939Z,15.17
2019-05-11T07:52:28.706Z,12.63
2019-05-11T07:54:58.221Z,12.40
2019-05-11T07:57:28.420Z,13.17
2019-05-11T07:59:57.963Z,13.13
2019-05-11T08:02:28.467Z,17.60
2019-05-11T08:04:58.756Z,11.50
2019-05-11T08:07:28.577Z,14.10
2019-05-11T08:09:58.687Z,17.27
2019-05-11T08:12:29.362Z,12.27
2019-05-11T08:15:08.612Z,11.50
2019-05-11T08:17:29.522Z,14.33
2019-05-11T08:19:58.806Z,11.80
2019-05-11T08:22:28.553Z,9.93
2019-05-11T08:24:58.625Z,13.07
2019-05-11T08:27:28.657Z,12.53
2019-05-11T08:30:00.478Z,11.93
2019-05-11T08:32:29.711Z,10.43
2019-05-11T08:34:58.989Z,13.60
2019-05-11T08:37:28.521Z,10.07
2019-05-11T08:40:00.021Z,13.87
2019-05-11T08:42:29.235Z,8.40
2019-05-11T08:45:15.355Z,16.73
2019-05-11T08:47:29.496Z,12.70
2019-05-11T08:49:59.153Z,15.30
2019-05-11T08:52:28.444Z,14.20
2019-05-11T08:54:57.911Z,13.30
2019-05-11T08:57:28.554Z,10.07
2019-05-11T09:00:00.073Z,15.30
2019-05-11T09:02:29.281Z,11.73
2019-05-11T09:04:59.034Z,14.03
2019-05-11T09:07:28.482Z,11.70
2019-05-11T09:09:58.638Z,11.67
2019-05-11T09:12:28.769Z,10.80
2019-05-11T09:15:01.176Z,11.33
2019-05-11T09:17:30.384Z,16.20
2019-05-11T09:20:00.866Z,12.57
2019-05-11T09:22:30.082Z,15.70
2019-05-11T09:24:59.271Z,12.30
2019-05-11T09:27:31.201Z,8.80
2019-05-11T09:30:02.344Z,12.33
2019-05-11T09:32:31.588Z,10.27
2019-05-11T09:35:00.907Z,11.70
2019-05-11T09:37:30.177Z,14.00
2019-05-11T09:39:59.461Z,10.93
2019-05-11T09:42:28.737Z,11.67
2019-05-11T09:44:57.985Z,10.50
2019-05-11T09:47:27.977Z,15.93
2019-05-11T09:49:58.224Z,9.07
2019-05-11T09:52:32.519Z,15.00
2019-05-11T09:55:04.982Z,8.77
2019-05-11T09:57:34.260Z,9.47
2019-05-11T10:00:03.529Z,13.20
2019-05-11T10:02:34.502Z,16.23
2019-05-11T10:05:04.588Z,9.97
2019-05-11T10:07:33.822Z,11.40
2019-05-11T10:10:03.224Z,8.23
2019-05-11T10:12:37.807Z,12.10
2019-05-11T10:15:31.851Z,13.40
2019-05-11T10:18:01.046Z,12.40
2019-05-11T10:20:30.262Z,10.90
2019-05-11T10:23:02.022Z,12.73
2019-05-11T10:25:31.723Z,13.50
2019-05-11T10:28:00.937Z,9.93
2019-05-11T10:30:33.230Z,12.33
2019-05-11T10:33:02.440Z,13.47
2019-05-11T10:35:31.640Z,13.00
2019-05-11T10:38:00.929Z,14.47
2019-05-11T10:40:30.139Z,10.73
2019-05-11T10:42:59.322Z,12.03
2019-05-11T10:45:28.691Z,13.33
2019-05-11T10:48:01.007Z,9.23
2019-05-11T10:50:31.281Z,10.30
2019-05-11T10:53:00.492Z,9.13
2019-05-11T10:55:29.713Z,11.80
2019-05-11T10:57:58.917Z,6.50
2019-05-11T11:00:28.392Z,12.87
2019-05-11T11:02:58.400Z,9.23
2019-05-11T11:05:28.024Z,10.73
2019-05-11T11:07:58.855Z,7.47
2019-05-11T11:10:28.768Z,9.43
2019-05-11T11:12:58.230Z,9.47
2019-05-11T11:15:28.837Z,10.10
2019-05-11T11:17:58.290Z,5.93
2019-05-11T11:20:28.148Z,11.33
2019-05-11T11:22:58.375Z,8.90
2019-05-11T11:25:28.409Z,7.73
2019-05-11T11:27:58.011Z,9.47
2019-05-11T11:30:28.599Z,11.57
2019-05-11T11:32:58.727Z,9.07
2019-05-11T11:35:28.200Z,7.73
2019-05-11T11:37:58.483Z,12.90
2019-05-11T11:40:28.318Z,7.87
2019-05-11T11:42:58.109Z,10.40
2019-05-11T11:45:28.787Z,6.30
2019-05-11T11:47:58.319Z,5.93
2019-05-11T11:50:28.379Z,9.67
2019-05-11T11:52:57.998Z,6.63
2019-05-11T11:55:29.031Z,6.90
2019-05-11T11:57:58.822Z,8.27
2019-05-11T12:00:29.039Z,5.87
2019-05-11T12:02:58.408Z,6.53
2019-05-11T12:05:28.312Z,7.63
2019-05-11T12:07:58.126Z,8.47
2019-05-11T12:10:30.027Z,4.33
2019-05-11T12:12:59.232Z,5.97
2019-05-11T12:15:29.297Z,6.30
2019-05-11T12:18:01.062Z,9.23
2019-05-11T12:20:30.261Z,7.47
2019-05-11T12:22:59.452Z,9.77
2019-05-11T12:25:28.658Z,7.67
2019-05-11T12:27:57.951Z,7.47
2019-05-11T12:30:28.552Z,6.80
2019-05-11T12:32:57.878Z,6.60
2019-05-11T12:35:28.447Z,9.00
2019-05-11T12:37:58.730Z,8.00
2019-05-11T12:40:29.581Z,4.33
2019-05-11T12:42:59.180Z,7.03
2019-05-11T12:45:29.558Z,15.67
2019-05-11T12:47:59.004Z,6.87
2019-05-11T12:50:28.714Z,4.90
2019-05-11T12:52:59.406Z,7.60
2019-05-11T12:55:28.862Z,10.93
2019-05-11T12:57:58.125Z,7.40
2019-05-11T13:00:30.930Z,7.47
2019-05-11T13:02:58.709Z,7.30
2019-05-11T13:05:28.643Z,8.47
2019-05-11T13:07:58.580Z,7.03
2019-05-11T13:10:28.367Z,4.03
2019-05-11T13:12:58.124Z,9.80
2019-05-11T13:15:28.136Z,7.87
2019-05-11T13:17:58.649Z,4.33
2019-05-11T13:20:28.514Z,8.60
2019-05-11T13:22:58.757Z,6.70
2019-05-11T13:25:28.374Z,5.57
2019-05-11T13:27:58.169Z,8.13
2019-05-11T13:30:27.959Z,14.33
2019-05-11T13:32:58.042Z,9.83
2019-05-11T13:35:28.516Z,7.37
2019-05-11T13:40:53.488Z,8.30
2019-05-11T13:43:22.705Z,5.00
2019-05-11T13:45:51.883Z,10.33
2019-05-11T13:48:21.222Z,5.97
2019-05-11T13:50:52.329Z,8.57
2019-05-11T13:53:21.298Z,7.43
2019-05-11T13:55:50.573Z,5.73
2019-05-11T13:58:20.186Z,7.37
2019-05-11T14:00:51.989Z,5.63
2019-05-11T14:03:27.647Z,5.27
2019-05-11T14:05:58.228Z,6.37
2019-05-11T14:08:28.693Z,5.50
2019-05-11T14:10:58.741Z,5.60
2019-05-11T14:13:28.606Z,7.13
2019-05-11T14:16:00.785Z,4.87
2019-05-11T14:18:30.018Z,9.23
2019-05-11T14:20:59.205Z,5.57
2019-05-11T14:23:31.255Z,4.43
2019-05-11T14:25:59.328Z,6.43
2019-05-11T14:28:28.645Z,6.40
2019-05-11T14:30:58.063Z,7.27
2019-05-11T14:33:28.376Z,8.60
2019-05-11T14:35:59.106Z,7.27
2019-05-11T14:38:29.018Z,4.80
2019-05-11T14:40:58.687Z,4.87
2019-05-11T14:43:27.981Z,11.20
2019-05-11T14:45:57.827Z,4.40
2019-05-11T14:48:29.931Z,2.87
2019-05-11T14:50:59.455Z,5.30
2019-05-11T14:53:28.769Z,4.70
2019-05-11T14:55:58.458Z,7.90
2019-05-11T14:58:28.125Z,5.87
2019-05-11T15:00:58.290Z,10.97
2019-05-11T15:03:28.752Z,5.80
2019-05-11T15:05:58.366Z,6.50
2019-05-11T15:08:29.156Z,7.03
2019-05-11T15:10:58.366Z,1.90
2019-05-11T15:13:28.779Z,9.13
2019-05-11T15:15:58.685Z,5.90
2019-05-11T15:18:36.111Z,7.30
2019-05-11T15:21:01.400Z,6.83
2019-05-11T15:23:30.596Z,4.77
2019-05-11T15:26:02.477Z,4.40
2019-05-11T15:28:31.688Z,9.67
2019-05-11T15:31:00.993Z,6.63
2019-05-11T15:33:30.254Z,5.30
2019-05-11T15:35:59.544Z,4.30
2019-05-11T15:38:28.764Z,8.10
2019-05-11T15:40:58.055Z,5.40
2019-05-11T15:43:28.270Z,5.13
2019-05-11T15:45:57.966Z,7.00
2019-05-11T15:48:28.553Z,7.90
2019-05-11T15:50:57.920Z,6.47
2019-05-11T15:53:27.102Z,29.03
2019-05-11T15:55:59.606Z,3.83
2019-05-11T15:58:29.123Z,6.73
2019-05-11T16:00:58.772Z,6.10
2019-05-11T16:03:28.046Z,4.80
2019-05-11T16:05:58.274Z,4.63
2019-05-11T16:08:28.351Z,7.20
2019-05-11T16:10:57.909Z,7.43
2019-05-11T16:13:28.486Z,6.23
2019-05-11T16:16:01.445Z,5.33
2019-05-11T16:18:30.698Z,4.50
2019-05-11T16:20:59.929Z,9.20
2019-05-11T16:23:30.181Z,7.43
2019-05-11T16:26:02.331Z,4.27
2019-05-11T16:28:38.356Z,4.13
2019-05-11T16:31:09.378Z,6.83
2019-05-11T16:33:39.763Z,6.73
2019-05-11T16:36:10.402Z,5.47
2019-05-11T16:38:39.648Z,7.93
2019-05-11T16:41:09.267Z,5.43
2019-05-11T16:43:38.686Z,6.07
2019-05-11T16:46:08.683Z,7.63
2019-05-11T16:48:38.404Z,11.70
2019-05-11T16:51:10.212Z,5.60
2019-05-11T16:53:39.388Z,8.33
2019-05-11T16:56:08.709Z,4.70
2019-05-11T16:58:40.955Z,9.43
2019-05-11T17:01:09.283Z,6.53
2019-05-11T17:03:38.659Z,6.43
2019-05-11T17:06:08.479Z,8.37
2019-05-11T17:08:38.384Z,5.90
2019-05-11T17:11:08.385Z,7.90
2019-05-11T17:13:38.136Z,5.77
2019-05-11T17:16:08.805Z,8.00
2019-05-11T17:18:41.024Z,6.60
2019-05-11T17:21:10.422Z,5.77
2019-05-11T19:31:25.204Z,4.60
2019-05-11T19:37:22.473Z,5.70
2019-05-11T20:28:48.295Z,4.83
2019-05-11T20:44:37.886Z,7.53
2019-05-11T20:47:51.179Z,5.30
2019-05-11T20:50:07.909Z,6.33
2019-05-11T20:52:38.984Z,4.50
2019-05-11T20:55:09.220Z,4.70
2019-05-11T20:57:39.601Z,5.13
2019-05-11T21:00:09.093Z,6.33
2019-05-11T21:02:38.423Z,7.03
2019-05-11T21:05:09.130Z,4.73
2019-05-11T21:07:39.130Z,7.90
2019-05-11T21:10:08.922Z,5.47
2019-05-11T21:12:38.942Z,5.13
2019-05-11T21:15:08.664Z,6.37
2019-05-11T21:17:37.920Z,6.63
2019-05-11T21:20:10.048Z,5.37
2019-05-11T21:22:41.358Z,10.80
2019-05-11T21:25:10.720Z,5.63
2019-05-11T21:27:39.933Z,7.13
2019-05-11T21:30:09.729Z,7.53
2019-05-11T21:32:40.325Z,4.80
2019-05-11T21:35:09.595Z,7.53
2019-05-11T21:37:39.268Z,3.73
2019-05-11T21:40:08.943Z,5.57
2019-05-11T21:42:39.388Z,6.53
2019-05-11T21:45:09.523Z,9.37
2019-05-11T21:47:39.681Z,6.50
2019-05-11T21:50:12.164Z,7.77
2019-05-11T21:52:41.464Z,5.93
2019-05-11T21:55:13.412Z,5.17
2019-05-11T21:57:41.860Z,6.20
2019-05-11T22:00:11.149Z,4.87
2019-05-11T22:02:40.400Z,7.83
2019-05-11T22:05:09.727Z,4.40
2019-05-11T22:07:42.060Z,5.60
2019-05-11T22:10:10.924Z,7.30
2019-05-11T22:12:41.774Z,4.50
2019-05-11T22:15:13.826Z,6.97
2019-05-11T22:17:47.713Z,8.87
2019-05-11T22:20:20.673Z,6.40
2019-05-11T22:22:49.146Z,5.50
2019-05-11T22:25:18.568Z,7.07
2019-05-11T22:27:48.770Z,3.77
2019-05-11T22:30:18.667Z,7.07
2019-05-11T22:32:48.117Z,4.70
2019-05-11T22:35:18.337Z,4.37
2019-05-11T22:37:49.020Z,6.53
2019-05-11T22:40:18.486Z,5.80
2019-05-11T22:42:49.091Z,4.90
2019-05-11T22:45:18.810Z,6.67
2019-05-11T22:47:51.193Z,4.77
2019-05-11T22:50:20.409Z,5.37
2019-05-11T22:52:53.622Z,8.30
2019-05-11T22:55:22.839Z,4.53
2019-05-11T22:57:52.048Z,5.80
2019-05-11T23:00:40.861Z,4.70
2019-05-11T23:03:11.305Z,4.67
2019-05-11T23:05:42.697Z,4.40
2019-05-11T23:08:11.975Z,8.13
2019-05-11T23:10:41.234Z,5.23
2019-05-11T23:13:11.200Z,5.00
2019-05-11T23:15:42.639Z,4.97
2019-05-11T23:18:11.952Z,3.00
2019-05-11T23:20:43.460Z,5.43
2019-05-11T23:23:13.013Z,7.00
2019-05-11T23:25:42.358Z,6.60
2019-05-11T23:28:12.909Z,5.63
2019-05-11T23:30:42.118Z,6.10
2019-05-11T23:33:11.436Z,4.17
2019-05-11T23:35:40.636Z,4.83
2019-05-11T23:38:09.980Z,5.07
2019-05-11T23:40:39.222Z,4.27
2019-05-11T23:43:08.957Z,3.93
2019-05-11T23:45:38.728Z,5.77
2019-05-11T23:48:07.925Z,3.90
2019-05-11T23:50:38.651Z,3.97
2019-05-11T23:53:10.236Z,4.07
2019-05-11T23:55:39.181Z,4.13
2019-05-11T23:58:08.485Z,4.60
